createdAt,value
2023-04-19T00:00:42.386Z,15.80
2023-04-19T00:01:42.378Z,14.90
2023-04-19T00:02:42.844Z,15.00
2023-04-19T00:03:42.358Z,14.10
2023-04-19T00:04:42.351Z,14.20
2023-04-19T00:05:42.161Z,15.00
2023-04-19T00:06:42.129Z,15.00
2023-04-19T00:07:42.098Z,14.30
2023-04-19T00:08:42.048Z,14.40
2023-04-19T00:09:41.999Z,14.10
2023-04-19T00:10:41.961Z,15.00
2023-04-19T00:11:41.946Z,14.60
2023-04-19T00:12:41.882Z,14.60
2023-04-19T00:13:41.879Z,14.90
2023-04-19T00:14:42.152Z,14.60
2023-04-19T00:15:41.758Z,15.10
2023-04-19T00:16:41.781Z,15.10
2023-04-19T00:17:41.701Z,14.80
2023-04-19T00:18:41.643Z,14.80
2023-04-19T00:19:41.612Z,15.00
2023-04-19T00:20:41.570Z,14.90
2023-04-19T00:21:41.516Z,14.90
2023-04-19T00:22:41.482Z,15.50
2023-04-19T00:23:41.438Z,15.20
2023-04-19T00:24:41.398Z,15.10
2023-04-19T00:25:41.357Z,14.80
2023-04-19T00:26:41.334Z,15.10
2023-04-19T00:27:41.276Z,15.70
2023-04-19T00:28:41.268Z,14.50
2023-04-19T00:29:41.195Z,15.40
2023-04-19T00:30:41.163Z,15.10
2023-04-19T00:31:41.148Z,14.80
2023-04-19T00:32:41.138Z,15.10
2023-04-19T00:33:41.036Z,15.00
2023-04-19T00:34:41.008Z,15.30
2023-04-19T00:35:40.959Z,15.00
2023-04-19T00:36:40.927Z,15.80
2023-04-19T00:37:40.890Z,15.20
2023-04-19T00:38:40.835Z,15.30
2023-04-19T00:39:40.797Z,15.30
2023-04-19T00:40:40.757Z,15.20
2023-04-19T00:41:40.714Z,15.60
2023-04-19T00:42:40.709Z,14.90
2023-04-19T00:43:40.641Z,15.20
2023-04-19T00:44:40.605Z,15.20
2023-04-19T00:45:40.569Z,15.00
2023-04-19T00:46:40.617Z,15.50
2023-04-19T00:47:40.565Z,15.10
2023-04-19T00:48:40.435Z,15.50
2023-04-19T00:49:40.406Z,15.00
2023-04-19T00:50:40.355Z,15.70
2023-04-19T00:51:40.309Z,15.20
2023-04-19T00:52:40.289Z,15.30
2023-04-19T00:53:40.229Z,15.10
2023-04-19T00:54:40.199Z,15.50
2023-04-19T00:55:40.163Z,15.80
2023-04-19T00:56:40.126Z,15.00
2023-04-19T00:57:40.067Z,16.00
2023-04-19T00:58:40.047Z,15.20
2023-04-19T00:59:39.992Z,15.60
2023-04-19T01:00:39.951Z,15.60
2023-04-19T01:01:39.957Z,15.90
2023-04-19T01:02:40.109Z,15.70
2023-04-19T01:03:40.143Z,15.70
2023-04-19T01:04:39.826Z,15.60
2023-04-19T01:05:39.749Z,15.40
2023-04-19T01:06:39.719Z,16.00
2023-04-19T01:07:39.779Z,14.90
2023-04-19T01:08:39.632Z,15.70
2023-04-19T01:09:39.590Z,15.90
2023-04-19T01:10:39.552Z,16.30
2023-04-19T01:11:40.751Z,16.10
2023-04-19T01:12:39.481Z,16.50
2023-04-19T01:13:39.425Z,15.00
2023-04-19T01:14:39.400Z,16.00
2023-04-19T01:15:39.402Z,15.40
2023-04-19T01:16:39.389Z,15.30
2023-04-19T01:17:39.336Z,15.40
2023-04-19T01:18:39.236Z,16.20
2023-04-19T01:19:39.185Z,15.90
2023-04-19T01:20:39.383Z,15.90
2023-04-19T01:21:39.100Z,15.60
2023-04-19T01:22:39.069Z,15.80
2023-04-19T01:23:39.055Z,16.50
2023-04-19T01:24:38.992Z,15.40
2023-04-19T01:25:38.974Z,15.90
2023-04-19T01:26:38.905Z,15.90
2023-04-19T01:27:38.876Z,15.40
2023-04-19T01:28:38.822Z,16.10
2023-04-19T01:29:38.781Z,16.00
2023-04-19T01:30:38.742Z,16.10
2023-04-19T01:31:38.738Z,15.90
2023-04-19T01:32:38.697Z,16.10
2023-04-19T01:33:38.633Z,16.30
2023-04-19T01:34:38.582Z,15.80
2023-04-19T01:35:38.539Z,16.20
2023-04-19T01:36:38.499Z,15.60
2023-04-19T01:37:38.671Z,15.60
2023-04-19T01:38:38.427Z,16.00
2023-04-19T01:39:38.402Z,16.10
2023-04-19T01:40:38.345Z,16.10
2023-04-19T01:41:38.300Z,17.20
2023-04-19T01:42:38.266Z,16.30
2023-04-19T01:43:38.231Z,15.20
2023-04-19T01:44:38.188Z,15.60
2023-04-19T01:45:38.150Z,15.80
2023-04-19T01:46:38.124Z,15.80
2023-04-19T01:47:38.076Z,15.40
2023-04-19T01:48:38.027Z,15.60
2023-04-19T01:49:37.990Z,15.70
2023-04-19T01:50:37.997Z,15.60
2023-04-19T01:51:37.909Z,16.50
2023-04-19T01:52:37.854Z,15.70
2023-04-19T01:53:37.817Z,15.30
2023-04-19T01:54:37.778Z,15.80
2023-04-19T01:55:37.759Z,15.80
2023-04-19T01:56:37.714Z,15.50
2023-04-19T01:57:37.661Z,16.30
2023-04-19T01:58:37.633Z,15.90
2023-04-19T01:59:37.576Z,15.70
2023-04-19T02:00:37.553Z,16.00
2023-04-19T02:01:37.494Z,16.10
2023-04-19T02:02:37.556Z,16.20
2023-04-19T02:03:37.575Z,16.50
2023-04-19T02:04:37.372Z,16.70
2023-04-19T02:05:37.335Z,16.10
2023-04-19T02:06:37.444Z,15.40
2023-04-19T02:07:37.253Z,16.20
2023-04-19T02:08:37.229Z,16.80
2023-04-19T02:09:37.177Z,16.90
2023-04-19T02:10:37.147Z,16.10
2023-04-19T02:11:37.098Z,16.50
2023-04-19T02:12:37.059Z,16.20
2023-04-19T02:13:37.012Z,16.20
2023-04-19T02:14:36.978Z,16.40
2023-04-19T02:15:36.948Z,16.40
2023-04-19T02:16:36.943Z,16.00
2023-04-19T02:17:36.915Z,16.10
2023-04-19T02:18:36.815Z,16.80
2023-04-19T02:19:36.767Z,16.30
2023-04-19T02:20:36.757Z,15.80
2023-04-19T02:21:36.689Z,16.30
2023-04-19T02:22:36.653Z,16.50
2023-04-19T02:23:36.722Z,16.10
2023-04-19T02:24:36.577Z,16.50
2023-04-19T02:25:36.528Z,16.10
2023-04-19T02:26:36.519Z,16.80
2023-04-19T02:27:36.462Z,16.70
2023-04-19T02:28:36.433Z,16.80
2023-04-19T02:29:36.378Z,17.30
2023-04-19T02:30:36.330Z,16.80
2023-04-19T02:31:36.321Z,16.50
2023-04-19T02:32:36.287Z,17.00
2023-04-19T02:33:36.208Z,16.80
2023-04-19T02:34:36.164Z,17.00
2023-04-19T02:35:36.150Z,17.50
2023-04-19T02:36:36.092Z,17.30
2023-04-19T02:37:36.075Z,17.70
2023-04-19T02:38:36.032Z,17.60
2023-04-19T02:39:35.966Z,17.30
2023-04-19T02:40:35.960Z,17.60
2023-04-19T02:41:35.891Z,17.30
2023-04-19T02:42:35.842Z,17.10
2023-04-19T02:43:35.819Z,17.10
2023-04-19T02:44:35.766Z,17.00
2023-04-19T02:45:35.722Z,17.20
2023-04-19T02:46:35.721Z,17.40
2023-04-19T02:47:35.687Z,17.00
2023-04-19T02:48:35.599Z,16.60
2023-04-19T02:49:35.567Z,17.80
2023-04-19T02:50:35.521Z,16.90
2023-04-19T02:51:35.484Z,17.20
2023-04-19T02:52:35.437Z,17.00
2023-04-19T02:53:35.392Z,18.00
2023-04-19T02:54:35.369Z,16.90
2023-04-19T02:55:35.325Z,17.30
2023-04-19T02:56:35.282Z,17.00
2023-04-19T02:57:35.327Z,17.10
2023-04-19T02:58:35.193Z,17.00
2023-04-19T02:59:35.153Z,17.50
2023-04-19T03:00:35.125Z,17.80
2023-04-19T03:01:35.085Z,17.20
2023-04-19T03:02:35.100Z,17.90
2023-04-19T03:03:35.098Z,17.80
2023-04-19T03:04:34.988Z,17.40
2023-04-19T03:05:35.290Z,17.80
2023-04-19T03:06:34.882Z,17.50
2023-04-19T03:07:34.820Z,17.60
2023-04-19T03:08:34.789Z,17.80
2023-04-19T03:09:34.749Z,17.90
2023-04-19T03:10:34.715Z,17.20
2023-04-19T03:11:35.116Z,17.00
2023-04-19T03:12:34.638Z,17.80
2023-04-19T03:13:34.602Z,17.40
2023-04-19T03:14:34.539Z,17.30
2023-04-19T03:15:34.506Z,18.00
2023-04-19T03:16:34.461Z,17.80
2023-04-19T03:17:34.452Z,18.30
2023-04-19T03:18:34.386Z,17.90
2023-04-19T03:19:34.332Z,17.50
2023-04-19T03:20:34.298Z,17.80
2023-04-19T03:21:34.247Z,17.80
2023-04-19T03:22:34.207Z,17.60
2023-04-19T03:23:34.176Z,16.50
2023-04-19T03:24:37.079Z,17.00
2023-04-19T03:25:34.080Z,16.70
2023-04-19T03:26:34.256Z,16.80
2023-04-19T03:27:34.009Z,16.90
2023-04-19T03:28:33.965Z,16.40
2023-04-19T03:29:33.918Z,16.80
2023-04-19T03:30:33.889Z,16.80
2023-04-19T03:31:33.877Z,16.40
2023-04-19T03:32:33.868Z,16.30
2023-04-19T03:33:33.760Z,17.00
2023-04-19T03:34:33.721Z,16.10
2023-04-19T03:35:33.683Z,16.30
2023-04-19T03:36:33.631Z,15.80
2023-04-19T03:37:33.604Z,15.80
2023-04-19T03:38:33.550Z,16.20
2023-04-19T03:39:33.511Z,16.40
2023-04-19T03:40:33.469Z,16.30
2023-04-19T03:41:33.420Z,15.60
2023-04-19T03:42:33.384Z,15.80
2023-04-19T03:43:33.403Z,15.10
2023-04-19T03:44:33.300Z,15.10
2023-04-19T03:45:33.261Z,15.30
2023-04-19T03:46:33.253Z,15.10
2023-04-19T03:47:33.211Z,14.80
2023-04-19T03:48:33.137Z,14.30
2023-04-19T03:49:33.113Z,14.60
2023-04-19T03:50:33.058Z,14.30
2023-04-19T03:51:33.017Z,13.70
2023-04-19T03:52:32.976Z,14.10
2023-04-19T03:53:32.939Z,13.50
2023-04-19T03:54:32.890Z,13.60
2023-04-19T03:55:32.877Z,13.70
2023-04-19T03:56:32.877Z,13.30
2023-04-19T03:57:32.772Z,13.60
2023-04-19T03:58:32.728Z,13.90
2023-04-19T03:59:32.693Z,13.70
2023-04-19T04:00:32.648Z,13.70
2023-04-19T04:01:33.291Z,12.70
2023-04-19T04:02:32.681Z,13.80
2023-04-19T04:03:32.626Z,13.30
2023-04-19T04:04:32.629Z,13.10
2023-04-19T04:05:32.517Z,13.00
2023-04-19T04:06:32.414Z,12.60
2023-04-19T04:07:32.389Z,12.00
2023-04-19T04:08:32.323Z,12.20
2023-04-19T04:09:32.280Z,12.40
2023-04-19T04:10:32.243Z,12.70
2023-04-19T04:11:32.204Z,12.30
2023-04-19T04:12:32.165Z,11.90
2023-04-19T04:13:32.153Z,12.00
2023-04-19T04:14:32.077Z,11.80
2023-04-19T04:15:32.041Z,11.20
2023-04-19T04:16:32.104Z,11.60
2023-04-19T04:17:32.025Z,11.90
2023-04-19T04:18:31.917Z,11.10
2023-04-19T04:19:31.890Z,10.90
2023-04-19T04:20:31.843Z,10.80
2023-04-19T04:21:31.791Z,10.80
2023-04-19T04:22:31.750Z,10.60
2023-04-19T04:23:32.159Z,10.40
2023-04-19T04:24:31.666Z,10.40
2023-04-19T04:25:31.643Z,10.20
2023-04-19T04:26:32.065Z,10.20
2023-04-19T04:27:31.560Z,10.00
2023-04-19T04:28:31.514Z,9.80
2023-04-19T04:29:31.491Z,9.30
2023-04-19T04:30:31.445Z,9.10
2023-04-19T04:31:31.443Z,9.00
2023-04-19T04:32:31.366Z,8.80
2023-04-19T04:33:31.331Z,8.60
2023-04-19T04:34:31.291Z,8.90
2023-04-19T04:35:31.247Z,8.10
2023-04-19T04:36:31.241Z,8.50
2023-04-19T04:37:31.177Z,7.90
2023-04-19T04:38:31.121Z,8.00
2023-04-19T04:39:31.081Z,8.00
2023-04-19T04:40:31.055Z,7.70
2023-04-19T04:41:31.005Z,8.10
2023-04-19T04:42:30.970Z,7.80
2023-04-19T04:43:30.923Z,7.20
2023-04-19T04:44:30.908Z,7.20
2023-04-19T04:45:30.863Z,7.40
2023-04-19T04:46:30.800Z,7.20
2023-04-19T04:47:30.803Z,7.00
2023-04-19T04:48:30.721Z,7.10
2023-04-19T04:49:30.684Z,7.60
2023-04-19T04:50:30.671Z,6.80
2023-04-19T04:51:30.613Z,7.00
2023-04-19T04:52:30.556Z,6.80
2023-04-19T04:53:30.531Z,7.10
2023-04-19T04:54:30.522Z,6.70
2023-04-19T04:55:30.447Z,6.60
2023-04-19T04:56:30.424Z,6.70
2023-04-19T04:57:30.936Z,6.60
2023-04-19T04:58:30.317Z,6.50
2023-04-19T04:59:30.281Z,6.70
2023-04-19T05:00:30.239Z,6.60
2023-04-19T05:01:30.284Z,6.60
2023-04-19T05:02:30.203Z,6.60
2023-04-19T05:03:30.190Z,6.30
2023-04-19T05:04:30.135Z,6.60
2023-04-19T05:05:30.035Z,6.50
2023-04-19T05:06:29.991Z,5.90
2023-04-19T05:07:29.955Z,6.30
2023-04-19T05:08:30.279Z,6.30
2023-04-19T05:09:29.890Z,6.70
2023-04-19T05:10:29.849Z,6.20
2023-04-19T05:11:29.790Z,6.30
2023-04-19T05:12:29.753Z,6.00
2023-04-19T05:13:29.713Z,6.00
2023-04-19T05:14:29.663Z,6.30
2023-04-19T05:15:29.640Z,6.50
2023-04-19T05:16:29.613Z,6.20
2023-04-19T05:17:29.650Z,6.20
2023-04-19T05:18:29.502Z,6.00
2023-04-19T05:19:29.561Z,6.20
2023-04-19T05:20:29.452Z,6.20
2023-04-19T05:21:29.403Z,6.10
2023-04-19T05:22:29.351Z,5.80
2023-04-19T05:23:29.328Z,6.20
2023-04-19T05:24:29.274Z,6.30
2023-04-19T05:25:29.220Z,6.00
2023-04-19T05:26:29.186Z,5.70
2023-04-19T05:27:29.160Z,5.80
2023-04-19T05:28:29.115Z,5.90
2023-04-19T05:29:29.102Z,5.70
2023-04-19T05:30:29.019Z,5.60
2023-04-19T05:31:29.001Z,5.80
2023-04-19T05:32:28.990Z,5.40
2023-04-19T05:33:28.906Z,5.50
2023-04-19T05:34:28.864Z,5.70
2023-04-19T05:35:28.839Z,6.00
2023-04-19T05:36:28.783Z,5.90
2023-04-19T05:37:28.768Z,5.80
2023-04-19T05:38:28.713Z,6.00
2023-04-19T05:39:28.661Z,5.90
2023-04-19T05:40:28.615Z,5.40
2023-04-19T05:41:28.581Z,5.70
2023-04-19T05:42:28.533Z,5.80
2023-04-19T05:43:28.498Z,5.50
2023-04-19T05:44:28.467Z,5.60
2023-04-19T05:45:28.422Z,5.50
2023-04-19T05:46:28.412Z,5.70
2023-04-19T05:47:28.410Z,5.30
2023-04-19T05:48:28.294Z,5.30
2023-04-19T05:49:28.254Z,5.30
2023-04-19T05:50:28.213Z,5.10
2023-04-19T05:51:28.197Z,5.40
2023-04-19T05:52:28.136Z,4.70
2023-04-19T05:53:28.106Z,5.10
2023-04-19T05:54:28.131Z,5.20
2023-04-19T05:55:28.014Z,5.00
2023-04-19T05:56:27.981Z,4.70
2023-04-19T05:57:27.941Z,4.80
2023-04-19T05:58:27.953Z,4.50
2023-04-19T05:59:28.168Z,4.90
2023-04-19T06:00:27.844Z,4.70
2023-04-19T06:01:27.814Z,4.80
2023-04-19T06:02:27.833Z,4.90
2023-04-19T06:03:29.979Z,4.50
2023-04-19T06:04:27.807Z,4.50
2023-04-19T06:05:27.667Z,4.30
2023-04-19T06:06:27.961Z,4.60
2023-04-19T06:07:32.914Z,5.10
2023-04-19T06:08:27.511Z,4.70
2023-04-19T06:09:27.471Z,4.70
2023-04-19T06:10:36.729Z,4.80
2023-04-19T06:11:38.473Z,4.60
2023-04-19T06:12:27.367Z,4.90
2023-04-19T06:13:27.320Z,4.90
2023-04-19T06:14:27.290Z,4.50
2023-04-19T06:15:27.245Z,4.60
2023-04-19T06:16:27.225Z,4.90
2023-04-19T06:17:27.259Z,4.70
2023-04-19T06:18:27.142Z,4.80
2023-04-19T06:19:27.109Z,4.60
2023-04-19T06:20:27.058Z,5.00
2023-04-19T06:21:27.032Z,4.70
2023-04-19T06:22:27.002Z,5.00
2023-04-19T06:23:26.960Z,5.10
2023-04-19T06:24:26.924Z,4.80
2023-04-19T06:25:26.892Z,4.80
2023-04-19T06:26:26.856Z,4.50
2023-04-19T06:27:26.817Z,5.00
2023-04-19T06:28:26.775Z,5.00
2023-04-19T06:29:26.731Z,4.90
2023-04-19T06:30:26.699Z,5.00
2023-04-19T06:31:26.741Z,4.60
2023-04-19T06:32:26.682Z,4.80
2023-04-19T06:33:26.587Z,5.10
2023-04-19T06:34:26.547Z,5.00
2023-04-19T06:35:26.519Z,4.80
2023-04-19T06:36:26.496Z,4.50
2023-04-19T06:37:26.538Z,4.50
2023-04-19T06:38:26.426Z,4.50
2023-04-19T06:39:26.405Z,5.00
2023-04-19T06:40:26.337Z,4.50
2023-04-19T06:41:26.315Z,4.80
2023-04-19T06:42:26.262Z,4.80
2023-04-19T06:43:26.250Z,4.80
2023-04-19T06:44:26.191Z,5.10
2023-04-19T06:45:26.160Z,4.70
2023-04-19T06:46:26.229Z,5.10
2023-04-19T06:47:26.121Z,4.70
2023-04-19T06:48:26.052Z,4.60
2023-04-19T06:49:26.052Z,5.20
2023-04-19T06:50:25.978Z,5.40
2023-04-19T06:51:25.962Z,5.00
2023-04-19T06:52:25.910Z,5.00
2023-04-19T06:53:25.879Z,5.20
2023-04-19T06:54:25.843Z,5.10
2023-04-19T06:55:25.823Z,5.40
2023-04-19T06:56:25.771Z,5.10
2023-04-19T06:57:25.739Z,5.30
2023-04-19T06:58:25.737Z,4.90
2023-04-19T06:59:25.664Z,5.40
2023-04-19T07:00:25.634Z,5.50
2023-04-19T07:01:25.642Z,5.30
2023-04-19T07:02:25.679Z,5.40
2023-04-19T07:03:25.628Z,5.80
2023-04-19T07:04:25.628Z,5.60
2023-04-19T07:05:25.450Z,5.50
2023-04-19T07:06:25.434Z,5.50
2023-04-19T07:07:25.392Z,5.40
2023-04-19T07:08:29.822Z,5.30
2023-04-19T07:09:25.304Z,5.60
2023-04-19T07:10:25.269Z,5.50
2023-04-19T07:11:25.259Z,5.70
2023-04-19T07:12:25.206Z,5.40
2023-04-19T07:13:25.158Z,5.60
2023-04-19T07:14:25.112Z,5.70
2023-04-19T07:15:25.088Z,5.50
2023-04-19T07:16:25.114Z,5.30
2023-04-19T07:17:25.058Z,5.40
2023-04-19T07:18:24.984Z,5.40
2023-04-19T07:19:24.933Z,5.50
2023-04-19T07:20:24.890Z,5.60
2023-04-19T07:21:24.873Z,5.70
2023-04-19T07:22:24.822Z,5.70
2023-04-19T07:23:24.776Z,5.20
2023-04-19T07:24:24.740Z,5.80
2023-04-19T07:25:24.719Z,5.60
2023-04-19T07:26:24.666Z,6.00
2023-04-19T07:27:25.023Z,5.50
2023-04-19T07:28:24.588Z,5.40
2023-04-19T07:29:24.569Z,5.60
2023-04-19T07:30:24.521Z,5.70
2023-04-19T07:31:24.480Z,5.40
2023-04-19T07:32:24.486Z,5.70
2023-04-19T07:33:27.891Z,5.50
2023-04-19T07:34:24.363Z,5.30
2023-04-19T07:35:24.354Z,5.80
2023-04-19T07:36:24.290Z,5.70
2023-04-19T07:37:24.253Z,5.60
2023-04-19T07:38:24.221Z,5.50
2023-04-19T07:39:24.180Z,5.60
2023-04-19T07:40:24.138Z,5.60
2023-04-19T07:41:24.117Z,5.10
2023-04-19T07:42:24.077Z,5.30
2023-04-19T07:43:24.035Z,5.10
2023-04-19T07:44:23.997Z,5.40
2023-04-19T07:45:23.963Z,5.20
2023-04-19T07:46:23.957Z,5.40
2023-04-19T07:47:23.924Z,5.30
2023-04-19T07:48:24.510Z,4.70
2023-04-19T07:49:24.844Z,5.20
2023-04-19T07:50:23.777Z,5.10
2023-04-19T07:51:24.459Z,5.40
2023-04-19T07:52:23.726Z,5.10
2023-04-19T07:53:23.671Z,5.00
2023-04-19T07:54:23.652Z,5.20
2023-04-19T07:55:23.638Z,5.30
2023-04-19T07:56:23.571Z,4.90
2023-04-19T07:57:23.542Z,5.10
2023-04-19T07:58:23.508Z,5.10
2023-04-19T07:59:23.462Z,4.90
2023-04-19T08:00:23.437Z,4.80
2023-04-19T08:01:23.526Z,4.80
2023-04-19T08:02:23.635Z,4.80
2023-04-19T08:03:24.304Z,4.70
2023-04-19T08:04:23.807Z,4.80
2023-04-19T08:05:23.438Z,4.70
2023-04-19T08:06:23.228Z,4.80
2023-04-19T08:07:23.411Z,4.60
2023-04-19T08:08:23.174Z,4.80
2023-04-19T08:09:23.480Z,4.50
2023-04-19T08:10:23.093Z,4.80
2023-04-19T08:11:23.056Z,4.20
2023-04-19T08:12:34.459Z,4.40
2023-04-19T08:13:22.989Z,4.30
2023-04-19T08:14:34.756Z,4.80
2023-04-19T08:16:03.728Z,4.60
2023-04-19T08:16:56.257Z,4.50
2023-04-19T08:17:25.937Z,4.50
2023-04-19T08:18:22.885Z,4.60
2023-04-19T08:19:22.791Z,4.00
2023-04-19T08:20:22.764Z,4.70
2023-04-19T08:21:28.603Z,4.30
2023-04-19T08:22:22.696Z,4.10
2023-04-19T08:23:25.983Z,4.20
2023-04-19T08:24:22.645Z,4.00
2023-04-19T08:25:22.637Z,4.40
2023-04-19T08:26:22.574Z,4.40
2023-04-19T08:27:22.546Z,3.90
2023-04-19T08:28:22.509Z,4.10
2023-04-19T08:29:22.469Z,4.20
2023-04-19T08:30:22.439Z,4.00
2023-04-19T08:31:22.565Z,4.20
2023-04-19T08:32:22.432Z,4.40
2023-04-19T08:33:22.348Z,4.30
2023-04-19T08:34:22.328Z,3.70
2023-04-19T08:35:22.273Z,4.40
2023-04-19T08:36:28.735Z,4.00
2023-04-19T08:37:22.209Z,4.40
2023-04-19T08:38:22.182Z,4.20
2023-04-19T08:39:32.319Z,3.70
2023-04-19T08:40:22.128Z,4.10
2023-04-19T08:41:22.089Z,4.10
2023-04-19T08:42:33.243Z,4.10
2023-04-19T08:43:22.026Z,3.80
2023-04-19T08:44:32.599Z,3.70
2023-04-19T08:45:27.036Z,3.80
2023-04-19T08:46:21.937Z,3.60
2023-04-19T08:47:30.214Z,3.70
2023-04-19T08:48:21.864Z,3.60
2023-04-19T08:49:21.814Z,3.60
2023-04-19T08:50:32.112Z,3.60
2023-04-19T08:51:21.750Z,3.60
2023-04-19T08:52:21.732Z,3.80
2023-04-19T08:53:25.780Z,3.80
2023-04-19T08:54:21.663Z,3.60
2023-04-19T08:55:21.649Z,3.90
2023-04-19T08:56:34.581Z,3.60
2023-04-19T08:57:21.559Z,3.40
2023-04-19T08:58:30.694Z,3.50
2023-04-19T08:59:21.676Z,3.40
2023-04-19T09:00:21.490Z,3.40
2023-04-19T09:01:30.894Z,3.10
2023-04-19T09:02:21.481Z,3.50
2023-04-19T09:03:21.860Z,3.30
2023-04-19T09:04:34.693Z,3.30
2023-04-19T09:05:21.474Z,3.30
2023-04-19T09:06:21.555Z,3.20
2023-04-19T09:07:21.228Z,3.20
2023-04-19T09:08:21.204Z,3.60
2023-04-19T09:09:34.090Z,3.40
2023-04-19T09:10:21.205Z,3.30
2023-04-19T09:11:21.098Z,3.10
2023-04-19T09:12:21.064Z,3.20
2023-04-19T09:13:21.036Z,3.30
2023-04-19T09:14:21.158Z,3.10
2023-04-19T09:15:20.974Z,3.60
2023-04-19T09:16:20.975Z,3.00
2023-04-19T09:17:20.904Z,3.40
2023-04-19T09:18:20.871Z,3.00
2023-04-19T09:19:24.906Z,3.20
2023-04-19T09:20:20.861Z,2.80
2023-04-19T09:21:20.800Z,3.00
2023-04-19T09:22:20.757Z,3.20
2023-04-19T09:23:21.063Z,3.00
2023-04-19T09:24:20.694Z,3.00
2023-04-19T09:26:23.512Z,3.30
2023-04-19T09:27:20.576Z,3.00
2023-04-19T09:28:20.558Z,3.00
2023-04-19T09:29:20.546Z,3.10
2023-04-19T09:30:30.042Z,3.00
2023-04-19T09:31:39.040Z,3.10
2023-04-19T09:32:20.546Z,2.90
2023-04-19T09:33:20.481Z,3.10
2023-04-19T09:34:20.487Z,3.30
2023-04-19T09:35:20.317Z,3.20
2023-04-19T09:36:20.286Z,3.20
2023-04-19T09:37:34.948Z,3.10
2023-04-19T09:38:20.218Z,3.10
2023-04-19T09:39:20.228Z,3.00
2023-04-19T09:40:20.159Z,3.10
2023-04-19T09:41:20.119Z,3.00
2023-04-19T09:42:32.880Z,3.00
2023-04-19T09:43:49.741Z,2.90
2023-04-19T09:45:29.319Z,2.80
2023-04-19T09:46:19.986Z,3.00
2023-04-19T09:47:19.928Z,3.00
2023-04-19T09:48:19.891Z,2.60
2023-04-19T09:49:25.267Z,2.70
2023-04-19T09:50:25.249Z,2.90
2023-04-19T09:51:19.823Z,2.90
2023-04-19T09:52:19.761Z,2.60
2023-04-19T09:53:19.736Z,2.70
2023-04-19T09:54:19.711Z,2.80
2023-04-19T09:56:19.644Z,2.70
2023-04-19T09:57:19.598Z,2.60
2023-04-19T09:58:19.568Z,2.80
2023-04-19T09:59:21.371Z,2.60
2023-04-19T10:00:19.503Z,2.70
2023-04-19T10:01:19.582Z,2.90
2023-04-19T10:02:19.588Z,2.60
2023-04-19T10:03:19.473Z,2.50
2023-04-19T10:04:28.946Z,2.60
2023-04-19T10:05:21.281Z,2.90
2023-04-19T10:06:35.613Z,2.80
2023-04-19T10:08:19.253Z,2.80
2023-04-19T10:09:19.242Z,2.80
2023-04-19T10:10:21.520Z,2.80
2023-04-19T10:11:19.170Z,2.50
2023-04-19T10:13:21.414Z,2.40
2023-04-19T10:14:19.085Z,2.70
2023-04-19T10:15:19.020Z,2.70
2023-04-19T10:16:20.486Z,2.70
2023-04-19T10:17:19.057Z,2.50
2023-04-19T10:18:18.936Z,2.70
2023-04-19T10:19:18.891Z,2.40
2023-04-19T10:20:18.884Z,2.10
2023-04-19T10:21:18.840Z,2.30
2023-04-19T10:22:18.800Z,2.30
2023-04-19T10:23:18.833Z,2.30
2023-04-19T10:24:18.735Z,2.20
2023-04-19T10:25:18.694Z,2.00
2023-04-19T10:26:18.661Z,2.10
2023-04-19T10:27:18.636Z,2.00
2023-04-19T10:28:18.621Z,1.70
2023-04-19T10:29:18.568Z,2.00
2023-04-19T10:30:18.553Z,1.90
2023-04-19T10:31:18.525Z,1.80
2023-04-19T10:32:18.639Z,1.90
2023-04-19T10:33:18.437Z,2.00
2023-04-19T10:34:18.416Z,1.80
2023-04-19T10:35:18.404Z,1.90
2023-04-19T10:36:18.340Z,2.00
2023-04-19T10:37:18.305Z,1.90
2023-04-19T10:38:18.295Z,2.20
2023-04-19T10:39:18.240Z,1.80
2023-04-19T10:40:18.225Z,2.00
2023-04-19T10:41:18.798Z,2.00
2023-04-19T10:42:18.153Z,2.00
2023-04-19T10:43:18.126Z,1.80
2023-04-19T10:44:18.080Z,1.90
2023-04-19T10:45:18.051Z,1.70
2023-04-19T10:46:18.099Z,1.70
2023-04-19T10:47:18.008Z,1.90
2023-04-19T10:48:17.953Z,1.50
2023-04-19T10:49:18.029Z,1.90
2023-04-19T10:50:17.887Z,2.30
2023-04-19T10:51:17.849Z,1.90
2023-04-19T10:52:17.838Z,2.00
2023-04-19T10:53:17.787Z,2.00
2023-04-19T10:54:17.755Z,1.80
2023-04-19T10:55:17.724Z,2.00
2023-04-19T10:56:17.696Z,2.10
2023-04-19T10:57:17.710Z,2.10
2023-04-19T10:58:17.649Z,2.10
2023-04-19T10:59:17.815Z,1.70
2023-04-19T11:00:17.573Z,1.90
2023-04-19T11:01:17.641Z,1.80
2023-04-19T11:02:17.584Z,1.90
2023-04-19T11:03:17.582Z,2.10
2023-04-19T11:04:17.650Z,2.10
2023-04-19T11:05:18.462Z,2.20
2023-04-19T11:06:17.373Z,2.10
2023-04-19T11:07:17.338Z,2.20
2023-04-19T11:08:17.310Z,2.30
2023-04-19T11:09:17.420Z,2.40
2023-04-19T11:10:17.257Z,2.40
2023-04-19T11:11:17.256Z,2.40
2023-04-19T11:12:17.248Z,2.40
2023-04-19T11:13:17.238Z,2.30
2023-04-19T11:14:17.119Z,2.20
2023-04-19T11:15:17.082Z,2.40
2023-04-19T11:16:19.302Z,2.40
2023-04-19T11:17:17.017Z,2.30
2023-04-19T11:18:17.059Z,2.40
2023-04-19T11:19:17.287Z,2.40
2023-04-19T11:20:16.929Z,2.10
2023-04-19T11:21:16.889Z,2.30
2023-04-19T11:22:16.885Z,2.60
2023-04-19T11:23:16.828Z,2.40
2023-04-19T11:24:16.811Z,2.40
2023-04-19T11:25:16.782Z,2.50
2023-04-19T11:26:16.735Z,2.40
2023-04-19T11:27:16.707Z,2.60
2023-04-19T11:28:16.667Z,2.50
2023-04-19T11:29:17.208Z,2.50
2023-04-19T11:30:16.623Z,2.60
2023-04-19T11:31:16.595Z,2.50
2023-04-19T11:32:16.546Z,2.60
2023-04-19T11:33:16.504Z,2.70
2023-04-19T11:34:16.741Z,2.30
2023-04-19T11:35:16.446Z,2.30
2023-04-19T11:36:16.420Z,2.40
2023-04-19T11:37:16.402Z,2.70
2023-04-19T11:38:16.345Z,2.40
2023-04-19T11:39:16.351Z,2.40
2023-04-19T11:40:16.302Z,2.40
2023-04-19T11:41:16.250Z,2.30
2023-04-19T11:42:16.211Z,2.30
2023-04-19T11:43:16.386Z,2.20
2023-04-19T11:44:16.442Z,2.30
2023-04-19T11:45:28.287Z,2.30
2023-04-19T11:46:16.107Z,2.30
2023-04-19T11:47:16.051Z,2.50
2023-04-19T11:48:16.123Z,2.20
2023-04-19T11:49:15.981Z,2.40
2023-04-19T11:50:15.976Z,2.10
2023-04-19T11:51:15.918Z,2.20
2023-04-19T11:52:15.900Z,2.30
2023-04-19T11:53:15.865Z,2.50
2023-04-19T11:54:15.997Z,2.20
2023-04-19T11:55:15.788Z,2.20
2023-04-19T11:56:15.758Z,2.40
2023-04-19T11:57:15.755Z,2.40
2023-04-19T11:58:15.713Z,2.20
2023-04-19T11:59:15.861Z,2.40
2023-04-19T12:00:15.621Z,2.30
2023-04-19T12:01:15.623Z,2.30
2023-04-19T12:02:15.585Z,2.20
2023-04-19T12:03:15.772Z,2.30
2023-04-19T12:04:15.985Z,2.40
2023-04-19T12:05:15.574Z,2.30
2023-04-19T12:06:15.440Z,2.30
2023-04-19T12:07:15.412Z,2.20
2023-04-19T12:08:15.366Z,2.50
2023-04-19T12:09:15.331Z,2.40
2023-04-19T12:10:15.313Z,2.20
2023-04-19T12:11:15.271Z,2.60
2023-04-19T12:12:15.237Z,2.20
2023-04-19T12:13:15.223Z,2.40
2023-04-19T12:14:15.614Z,2.50
2023-04-19T12:15:15.186Z,2.40
2023-04-19T12:16:15.216Z,2.60
2023-04-19T12:17:15.081Z,2.20
2023-04-19T12:18:15.087Z,2.20
2023-04-19T12:19:15.126Z,2.60
2023-04-19T12:20:14.982Z,2.10
2023-04-19T12:21:14.951Z,2.30
2023-04-19T12:22:14.938Z,2.30
2023-04-19T12:23:14.883Z,2.80
2023-04-19T12:24:14.860Z,2.70
2023-04-19T12:25:14.817Z,2.60
2023-04-19T12:26:14.778Z,2.60
2023-04-19T12:27:14.752Z,2.50
2023-04-19T12:28:14.712Z,2.40
2023-04-19T12:29:14.966Z,2.50
2023-04-19T12:30:14.650Z,2.40
2023-04-19T12:31:14.643Z,2.30
2023-04-19T12:32:14.679Z,2.60
2023-04-19T12:33:14.606Z,2.50
2023-04-19T12:34:14.516Z,2.90
2023-04-19T12:35:14.501Z,2.70
2023-04-19T12:36:14.449Z,2.60
2023-04-19T12:37:14.418Z,2.50
2023-04-19T12:38:14.384Z,2.80
2023-04-19T12:39:14.404Z,2.50
2023-04-19T12:40:14.318Z,2.60
2023-04-19T12:41:14.313Z,2.40
2023-04-19T12:42:14.293Z,2.70
2023-04-19T12:43:14.221Z,2.60
2023-04-19T12:44:14.350Z,2.60
2023-04-19T12:45:14.162Z,2.70
2023-04-19T12:46:14.333Z,2.50
2023-04-19T12:47:14.195Z,2.50
2023-04-19T12:48:14.042Z,2.70
2023-04-19T12:49:14.400Z,2.50
2023-04-19T12:50:13.965Z,2.70
2023-04-19T12:51:13.952Z,2.80
2023-04-19T12:52:13.897Z,2.80
2023-04-19T12:53:13.863Z,2.90
2023-04-19T12:54:13.848Z,2.60
2023-04-19T12:55:13.787Z,3.20
2023-04-19T12:56:13.752Z,3.00
2023-04-19T12:57:13.729Z,3.10
2023-04-19T12:58:13.676Z,2.90
2023-04-19T12:59:13.915Z,3.10
2023-04-19T13:00:13.622Z,3.10
2023-04-19T13:01:13.648Z,3.30
2023-04-19T13:02:13.592Z,2.90
2023-04-19T13:03:13.658Z,3.00
2023-04-19T13:04:13.648Z,3.10
2023-04-19T13:05:13.454Z,3.20
2023-04-19T13:06:13.407Z,3.40
2023-04-19T13:07:13.348Z,3.10
2023-04-19T13:08:13.303Z,3.30
2023-04-19T13:09:14.836Z,3.10
2023-04-19T13:10:13.246Z,2.80
2023-04-19T13:11:13.233Z,3.20
2023-04-19T13:12:13.162Z,3.00
2023-04-19T13:13:13.124Z,3.20
2023-04-19T13:14:13.074Z,2.90